Time;durP1;ratioP1;P1;durP2;ratioP2;P2;SDS_P1;SDS_P2;PMS_P1;PMS_P2;Temp;Humidity;BMP_temperature;BMP_pressure;BME280_temperature;BME280_humidity;BME280_pressure;Samples;Min_cycle;Max_cycle;Signal;HPM_P1;HPM_P2
2022/05/25 00:01:42;;;;;;;8.90;2.95;;;;;;;;;;5052624;28;20040;-40
2022/05/25 00:04:08;;;;;;;27.00;3.10;;;;;;;;;;5052490;28;20396;-40
2022/05/25 00:06:33;;;;;;;10.15;2.45;;;;;;;;;;5052622;28;20036;-40
2022/05/25 00:08:59;;;;;;;11.55;3.35;;;;;;;;;;5052462;28;20375;-40
2022/05/25 00:11:24;;;;;;;8.18;2.42;;;;;;;;;;5052483;28;20105;-40
2022/05/25 00:13:50;;;;;;;9.05;2.95;;;;;;;;;;5050859;28;20138;-39
2022/05/25 00:16:16;;;;;;;20.58;2.80;;;;;;;;;;5052331;28;20083;-40
2022/05/25 00:21:25;;;;;;;16.65;2.42;;;;;;;;;;5051620;28;20045;-40
2022/05/25 00:23:50;;;;;;;19.45;3.05;;;;;;;;;;5051824;28;20021;-40
2022/05/25 00:26:16;;;;;;;11.95;2.60;;;;;;;;;;5052256;28;20471;-40
2022/05/25 00:28:41;;;;;;;4.57;2.30;;;;;;;;;;5052239;28;20020;-40
2022/05/25 00:31:08;;;;;;;5.25;2.15;;;;;;;;;;5052377;28;20495;-40
2022/05/25 00:33:34;;;;;;;16.33;2.35;;;;;;;;;;5051942;28;20034;-40
2022/05/25 00:35:59;;;;;;;3.17;2.30;;;;;;;;;;5051929;28;20025;-39
2022/05/25 00:38:24;;;;;;;33.50;2.72;;;;;;;;;;5051962;28;20360;-40
2022/05/25 00:40:50;;;;;;;4.82;2.25;;;;;;;;;;5051732;28;20048;-40
2022/05/25 00:43:15;;;;;;;6.22;2.28;;;;;;;;;;5051892;28;20025;-40
2022/05/25 00:45:43;;;;;;;4.82;2.78;;;;;;;;;;5050361;28;20466;-40
2022/05/25 00:48:13;;;;;;;5.03;2.13;;;;;;;;;;5050466;28;20025;-40
2022/05/25 00:53:22;;;;;;;12.40;2.95;;;;;;;;;;5051799;28;20086;-40
2022/05/25 00:55:48;;;;;;;16.85;2.78;;;;;;;;;;5051553;28;20407;-40
2022/05/25 00:58:14;;;;;;;4.70;2.55;;;;;;;;;;5051666;28;20033;-40
2022/05/25 01:00:39;;;;;;;4.20;2.53;;;;;;;;;;5051445;28;20134;-40
2022/05/25 01:03:08;;;;;;;7.13;2.78;;;;;;;;;;5051428;28;20036;-39
2022/05/25 01:05:54;;;;;;;3.60;2.72;;;;;;;;;;5051532;28;20090;-40
2022/05/25 01:08:22;;;;;;;5.70;2.88;;;;;;;;;;5051210;28;20068;-40
2022/05/25 01:11:06;;;;;;;14.40;2.97;;;;;;;;;;5051304;28;20418;-40
2022/05/25 01:13:41;;;;;;;8.82;2.22;;;;;;;;;;5051119;28;20506;-40
2022/05/25 01:16:13;;;;;;;15.35;2.47;;;;;;;;;;5051627;28;20045;-39
2022/05/25 01:18:50;;;;;;;8.15;2.30;;;;;;;;;;5051309;28;20032;-40
2022/05/25 01:21:18;;;;;;;2.92;2.10;;;;;;;;;;5051200;28;20507;-40
2022/05/25 01:23:53;;;;;;;3.97;2.28;;;;;;;;;;5051428;28;20022;-40
2022/05/25 01:26:21;;;;;;;11.10;1.92;;;;;;;;;;5051176;28;20143;-40
2022/05/25 01:28:52;;;;;;;5.10;2.10;;;;;;;;;;5051468;28;20036;-40
2022/05/25 01:31:23;;;;;;;6.25;2.10;;;;;;;;;;5051480;28;20121;-40
2022/05/25 01:33:49;;;;;;;8.43;1.67;;;;;;;;;;5050670;28;20052;-39
2022/05/25 01:36:21;;;;;;;9.68;2.78;;;;;;;;;;5051210;28;20017;-40
2022/05/25 01:38:49;;;;;;;3.92;2.33;;;;;;;;;;5050958;28;20059;-39
2022/05/25 01:41:19;;;;;;;3.78;1.67;;;;;;;;;;5051369;28;20033;-40
2022/05/25 01:43:50;;;;;;;2.25;2.03;;;;;;;;;;5051085;28;20025;-40
2022/05/25 01:46:22;;;;;;;2.08;1.75;;;;;;;;;;5051354;28;20049;-40
2022/05/25 01:48:48;;;;;;;3.20;2.15;;;;;;;;;;5051261;28;20033;-40
2022/05/25 01:51:18;;;;;;;7.65;1.83;;;;;;;;;;5051679;28;20021;-40
2022/05/25 01:53:45;;;;;;;21.80;2.05;;;;;;;;;;5051082;28;20396;-40
2022/05/25 01:56:13;;;;;;;2.30;1.35;;;;;;;;;;5051229;28;20051;-40
2022/05/25 01:58:40;;;;;;;4.80;1.20;;;;;;;;;;5050953;28;20029;-40
2022/05/25 02:01:07;;;;;;;2.95;1.65;;;;;;;;;;5050714;28;20036;-40
2022/05/25 02:06:25;;;;;;;2.03;1.25;;;;;;;;;;5051158;28;20391;-39
2022/05/25 02:09:20;;;;;;;6.43;1.60;;;;;;;;;;5050721;28;20032;-40
2022/05/25 02:11:47;;;;;;;4.57;1.10;;;;;;;;;;5050045;28;20094;-40
2022/05/25 02:14:24;;;;;;;0.80;0.75;;;;;;;;;;5050533;28;20041;-40
2022/05/25 02:16:56;;;;;;;1.15;1.00;;;;;;;;;;5050756;28;20029;-40
2022/05/25 02:19:33;;;;;;;2.17;1.63;;;;;;;;;;5050882;28;20040;-40
2022/05/25 02:22:11;;;;;;;3.80;1.15;;;;;;;;;;5050916;28;20125;-40
2022/05/25 02:24:47;;;;;;;1.55;1.20;;;;;;;;;;5050598;28;20083;-40
2022/05/25 02:27:19;;;;;;;2.35;0.95;;;;;;;;;;5050790;28;20036;-40
2022/05/25 02:29:46;;;;;;;2.15;1.02;;;;;;;;;;5050580;28;20064;-40
2022/05/25 02:32:18;;;;;;;1.27;0.73;;;;;;;;;;5050660;28;20112;-41
2022/05/25 02:34:47;;;;;;;0.63;0.57;;;;;;;;;;5050444;28;20376;-39
2022/05/25 02:37:12;;;;;;;1.23;1.10;;;;;;;;;;5050848;28;20025;-40
2022/05/25 02:39:38;;;;;;;2.58;1.10;;;;;;;;;;5050644;28;20041;-40
2022/05/25 02:42:10;;;;;;;5.63;2.05;;;;;;;;;;5050866;28;20025;-40
2022/05/25 02:44:35;;;;;;;6.47;1.03;;;;;;;;;;5050756;28;20108;-40
2022/05/25 02:47:00;;;;;;;9.52;1.13;;;;;;;;;;5053760;28;20342;-40
2022/05/25 02:49:26;;;;;;;0.70;0.70;;;;;;;;;;5054417;28;20479;-40
2022/05/25 02:51:51;;;;;;;2.40;0.90;;;;;;;;;;5054093;28;20021;-39
2022/05/25 02:54:22;;;;;;;0.73;0.73;;;;;;;;;;5053934;28;20116;-41
2022/05/25 02:56:47;;;;;;;5.20;1.02;;;;;;;;;;5053855;28;20033;-40
2022/05/25 02:59:12;;;;;;;2.58;0.88;;;;;;;;;;5053891;28;20421;-40
2022/05/25 03:01:39;;;;;;;4.10;2.50;;;;;;;;;;5053656;28;20045;-40
2022/05/25 03:04:04;;;;;;;2.53;1.00;;;;;;;;;;5053722;28;20056;-41
2022/05/25 03:06:31;;;;;;;0.80;0.73;;;;;;;;;;5054016;28;20056;-40
2022/05/25 03:08:56;;;;;;;1.38;0.82;;;;;;;;;;5053679;28;20100;-41
2022/05/25 03:11:21;;;;;;;5.03;0.90;;;;;;;;;;5053835;28;20111;-40
2022/05/25 03:13:48;;;;;;;6.55;1.95;;;;;;;;;;5053462;28;20136;-40
2022/05/25 03:16:15;;;;;;;1.25;0.80;;;;;;;;;;5053544;28;20032;-40
2022/05/25 03:18:41;;;;;;;0.90;0.70;;;;;;;;;;5053377;28;20031;-40
2022/05/25 03:21:08;;;;;;;2.67;1.20;;;;;;;;;;5053427;28;20119;-39
2022/05/25 03:23:33;;;;;;;2.25;0.80;;;;;;;;;;5053371;28;20024;-40
2022/05/25 03:25:59;;;;;;;1.30;0.95;;;;;;;;;;5053535;28;20109;-40
2022/05/25 03:28:24;;;;;;;3.90;0.75;;;;;;;;;;5053330;28;20025;-39
2022/05/25 03:30:50;;;;;;;3.03;0.77;;;;;;;;;;5053408;28;20053;-40
2022/05/25 03:33:15;;;;;;;1.38;0.75;;;;;;;;;;5053172;28;20100;-40
2022/05/25 03:35:40;;;;;;;2.33;1.00;;;;;;;;;;5053164;28;20025;-41
2022/05/25 03:38:06;;;;;;;2.30;1.05;;;;;;;;;;5053198;28;20601;-40
2022/05/25 03:40:31;;;;;;;0.98;0.70;;;;;;;;;;5053206;28;20048;-40
2022/05/25 03:42:57;;;;;;;2.42;0.75;;;;;;;;;;5052917;28;20020;-40
2022/05/25 03:45:23;;;;;;;5.47;1.40;;;;;;;;;;5051762;28;20171;-40
2022/05/25 03:47:49;;;;;;;2.92;0.80;;;;;;;;;;5052751;28;20100;-40
2022/05/25 03:50:14;;;;;;;4.00;0.93;;;;;;;;;;5052986;28;20049;-40
2022/05/25 03:52:40;;;;;;;2.90;0.85;;;;;;;;;;5053043;28;20012;-40
2022/05/25 03:55:06;;;;;;;1.15;0.73;;;;;;;;;;5052704;28;20463;-40
2022/05/25 03:57:32;;;;;;;1.48;0.80;;;;;;;;;;5052542;28;20017;-40
2022/05/25 03:59:57;;;;;;;8.43;1.10;;;;;;;;;;5052490;28;20032;-40
2022/05/25 04:02:23;;;;;;;3.45;1.10;;;;;;;;;;5052676;28;20017;-40
2022/05/25 04:05:07;;;;;;;13.93;1.55;;;;;;;;;;5052807;28;20364;-40
2022/05/25 04:07:40;;;;;;;1.02;0.65;;;;;;;;;;5052716;28;20044;-40
2022/05/25 04:10:06;;;;;;;3.47;1.13;;;;;;;;;;5052399;28;20036;-40
2022/05/25 04:12:32;;;;;;;4.10;1.25;;;;;;;;;;5052322;28;20123;-40
2022/05/25 04:14:57;;;;;;;2.20;1.02;;;;;;;;;;5052600;28;20033;-40
2022/05/25 04:17:22;;;;;;;1.67;0.75;;;;;;;;;;5052270;28;20489;-40
2022/05/25 04:19:50;;;;;;;1.30;0.95;;;;;;;;;;5052201;28;20049;-40
2022/05/25 04:22:15;;;;;;;1.35;0.70;;;;;;;;;;5052282;28;20017;-40
2022/05/25 04:24:41;;;;;;;1.05;0.80;;;;;;;;;;5052352;28;20452;-39
2022/05/25 04:27:06;;;;;;;3.83;0.63;;;;;;;;;;5051223;28;20016;-40
2022/05/25 04:29:31;;;;;;;1.00;0.80;;;;;;;;;;5052046;28;20024;-40
2022/05/25 04:31:57;;;;;;;1.40;0.93;;;;;;;;;;5052002;28;20044;-40
2022/05/25 04:34:22;;;;;;;7.03;1.70;;;;;;;;;;5052303;28;20060;-40
2022/05/25 04:36:48;;;;;;;6.13;1.20;;;;;;;;;;5051857;28;20025;-39
2022/05/25 04:39:13;;;;;;;2.03;1.52;;;;;;;;;;5052327;28;20032;-40
2022/05/25 04:41:38;;;;;;;6.47;1.30;;;;;;;;;;5051913;28;20029;-39
2022/05/25 04:44:04;;;;;;;2.22;0.90;;;;;;;;;;5051773;28;20044;-40
2022/05/25 04:46:29;;;;;;;2.83;1.17;;;;;;;;;;5052085;28;20025;-40
2022/05/25 04:48:55;;;;;;;3.33;0.82;;;;;;;;;;5052001;28;20025;-40
2022/05/25 04:51:20;;;;;;;1.35;0.90;;;;;;;;;;5051806;28;20474;-40
2022/05/25 04:53:45;;;;;;;5.20;1.20;;;;;;;;;;5051664;28;20621;-40
2022/05/25 04:58:54;;;;;;;1.15;0.98;;;;;;;;;;5051727;28;20033;-39
2022/05/25 05:01:20;;;;;;;1.00;0.75;;;;;;;;;;5051820;28;20111;-40
2022/05/25 05:03:46;;;;;;;1.23;0.90;;;;;;;;;;5051514;28;20039;-40
2022/05/25 05:06:12;;;;;;;2.88;1.38;;;;;;;;;;5051377;28;20487;-41
2022/05/25 05:08:38;;;;;;;1.88;0.95;;;;;;;;;;5050962;28;20041;-40
2022/05/25 05:11:07;;;;;;;1.20;0.80;;;;;;;;;;5051658;28;20028;-39
2022/05/25 05:13:36;;;;;;;2.33;1.08;;;;;;;;;;5051205;28;20128;-39
2022/05/25 05:16:07;;;;;;;2.72;1.20;;;;;;;;;;5050104;28;20471;-40
2022/05/25 05:18:33;;;;;;;1.48;1.00;;;;;;;;;;5051658;28;20033;-40
2022/05/25 05:21:30;;;;;;;4.57;0.95;;;;;;;;;;5056066;28;20037;-39
2022/05/25 05:23:56;;;;;;;1.67;1.23;;;;;;;;;;5050244;28;20502;-39
2022/05/25 05:26:22;;;;;;;1.55;1.08;;;;;;;;;;5051158;28;20383;-40
2022/05/25 05:28:49;;;;;;;2.47;1.42;;;;;;;;;;5051264;28;20103;-39
2022/05/25 05:31:15;;;;;;;9.63;1.30;;;;;;;;;;5051238;28;20021;-39
2022/05/25 05:33:40;;;;;;;4.50;1.48;;;;;;;;;;5051240;28;20029;-40
2022/05/25 05:36:19;;;;;;;3.92;1.42;;;;;;;;;;5051420;28;20044;-40
2022/05/25 05:38:49;;;;;;;7.13;2.35;;;;;;;;;;5051022;28;20029;-40
2022/05/25 05:41:15;;;;;;;1.85;1.58;;;;;;;;;;5051407;28;20422;-40
2022/05/25 05:43:41;;;;;;;5.07;1.70;;;;;;;;;;5050972;28;20028;-40
2022/05/25 05:46:07;;;;;;;1.98;1.35;;;;;;;;;;5051136;28;20025;-39
2022/05/25 05:48:33;;;;;;;1.00;0.90;;;;;;;;;;5051054;28;20387;-40
2022/05/25 05:50:58;;;;;;;1.35;1.10;;;;;;;;;;5051212;28;20032;-39
2022/05/25 05:53:26;;;;;;;4.03;1.60;;;;;;;;;;5049857;28;20037;-39
2022/05/25 05:55:51;;;;;;;2.15;1.48;;;;;;;;;;5050749;28;20074;-39
2022/05/25 05:58:17;;;;;;;2.25;1.08;;;;;;;;;;5050980;28;20029;-40
2022/05/25 06:00:43;;;;;;;3.38;1.40;;;;;;;;;;5051072;28;20025;-40
2022/05/25 06:03:09;;;;;;;2.97;1.40;;;;;;;;;;5050708;28;20030;-40
2022/05/25 06:05:34;;;;;;;3.97;1.30;;;;;;;;;;5049677;28;20032;-41
2022/05/25 06:08:11;;;;;;;1.20;1.10;;;;;;;;;;5050792;28;20036;-40
2022/05/25 06:10:37;;;;;;;3.72;1.40;;;;;;;;;;5050837;28;20029;-40
2022/05/25 06:13:03;;;;;;;5.70;1.42;;;;;;;;;;5050676;28;20044;-39
2022/05/25 06:20:56;;;;;;;2.33;1.35;;;;;;;;;;5053867;28;20105;-39
2022/05/25 06:23:21;;;;;;;5.70;1.02;;;;;;;;;;5054671;28;20115;-40
2022/05/25 06:25:47;;;;;;;2.10;1.00;;;;;;;;;;5054494;28;20040;-39
2022/05/25 06:28:12;;;;;;;3.20;1.52;;;;;;;;;;5054556;28;20166;-40
2022/05/25 06:30:38;;;;;;;3.30;1.45;;;;;;;;;;5054332;28;20466;-40
2022/05/25 06:33:06;;;;;;;2.88;1.42;;;;;;;;;;5054334;28;20021;-40
2022/05/25 06:35:33;;;;;;;3.03;1.27;;;;;;;;;;5053084;28;20163;-40
2022/05/25 06:37:58;;;;;;;1.73;1.35;;;;;;;;;;5054456;28;20033;-40
2022/05/25 06:40:24;;;;;;;2.20;1.38;;;;;;;;;;5054306;28;20506;-40
2022/05/25 06:42:51;;;;;;;1.70;0.90;;;;;;;;;;5053084;28;20463;-39
2022/05/25 06:45:17;;;;;;;8.07;1.60;;;;;;;;;;5054196;28;20087;-41
2022/05/25 06:47:43;;;;;;;2.40;1.50;;;;;;;;;;5054265;28;20348;-40
2022/05/25 06:50:09;;;;;;;2.20;1.17;;;;;;;;;;5054059;28;20090;-40
2022/05/25 06:52:34;;;;;;;2.55;1.25;;;;;;;;;;5054029;28;20477;-40
2022/05/25 06:55:00;;;;;;;4.45;1.05;;;;;;;;;;5053816;28;20033;-40
2022/05/25 06:57:26;;;;;;;1.70;1.30;;;;;;;;;;5054038;28;20078;-40
2022/05/25 06:59:52;;;;;;;2.80;1.15;;;;;;;;;;5053497;28;20128;-40
2022/05/25 07:02:17;;;;;;;5.82;1.33;;;;;;;;;;5053903;28;20104;-40
2022/05/25 07:04:43;;;;;;;1.30;1.00;;;;;;;;;;5053729;28;20097;-39
2022/05/25 07:07:09;;;;;;;1.13;0.90;;;;;;;;;;5052398;28;20530;-41
2022/05/25 07:09:37;;;;;;;3.25;0.93;;;;;;;;;;5053797;28;20494;-40
2022/05/25 07:12:02;;;;;;;2.55;1.20;;;;;;;;;;5053608;28;20021;-40
2022/05/25 07:14:29;;;;;;;1.80;1.13;;;;;;;;;;5053306;28;20095;-40
2022/05/25 07:16:58;;;;;;;5.53;0.95;;;;;;;;;;5053765;28;20087;-40
2022/05/25 07:19:23;;;;;;;5.03;1.60;;;;;;;;;;5053386;28;20033;-40
2022/05/25 07:21:49;;;;;;;1.25;1.05;;;;;;;;;;5053288;28;20036;-40
2022/05/25 07:24:14;;;;;;;3.80;1.65;;;;;;;;;;5053428;28;20103;-41
2022/05/25 07:26:40;;;;;;;1.23;0.93;;;;;;;;;;5053641;28;20028;-40
2022/05/25 07:29:05;;;;;;;6.95;1.10;;;;;;;;;;5053280;28;20025;-40
2022/05/25 07:31:33;;;;;;;6.70;1.55;;;;;;;;;;5052859;28;20375;-40
2022/05/25 07:34:04;;;;;;;2.88;1.35;;;;;;;;;;5053236;28;20040;-44
2022/05/25 07:36:30;;;;;;;2.70;1.10;;;;;;;;;;5053136;28;20082;-40
2022/05/25 07:38:58;;;;;;;6.72;1.35;;;;;;;;;;5051810;28;20025;-40
2022/05/25 07:41:23;;;;;;;6.43;1.50;;;;;;;;;;5053304;28;20068;-40
2022/05/25 07:43:53;;;;;;;4.30;2.28;;;;;;;;;;5052839;28;20429;-40
2022/05/25 07:46:19;;;;;;;1.55;1.10;;;;;;;;;;5053112;28;20028;-41
2022/05/25 07:48:44;;;;;;;4.32;1.55;;;;;;;;;;5053029;28;20048;-40
2022/05/25 07:51:10;;;;;;;7.40;1.20;;;;;;;;;;5053240;28;20494;-40
2022/05/25 07:56:19;;;;;;;2.00;1.17;;;;;;;;;;5052833;28;20632;-40
2022/05/25 07:58:45;;;;;;;4.30;1.83;;;;;;;;;;5052679;28;20074;-40
2022/05/25 08:01:12;;;;;;;8.65;2.00;;;;;;;;;;5052905;28;20045;-40
2022/05/25 08:06:23;;;;;;;2.67;1.58;;;;;;;;;;5052957;28;20055;-41
2022/05/25 08:08:48;;;;;;;4.15;1.95;;;;;;;;;;5052520;28;20479;-41
2022/05/25 08:11:16;;;;;;;4.47;1.35;;;;;;;;;;5052374;28;20029;-41
2022/05/25 08:13:44;;;;;;;1.63;1.23;;;;;;;;;;5052420;28;20407;-41
2022/05/25 08:16:09;;;;;;;4.90;1.92;;;;;;;;;;5052390;28;20095;-40
2022/05/25 08:18:35;;;;;;;7.25;2.30;;;;;;;;;;5052659;28;20486;-40
2022/05/25 08:21:00;;;;;;;1.40;1.25;;;;;;;;;;5051025;28;20041;-40
2022/05/25 08:23:25;;;;;;;4.43;1.88;;;;;;;;;;5052530;28;20470;-40
2022/05/25 08:25:51;;;;;;;3.83;2.03;;;;;;;;;;5052094;28;20033;-40
2022/05/25 08:28:17;;;;;;;2.85;1.55;;;;;;;;;;5051049;28;20100;-41
2022/05/25 08:30:44;;;;;;;1.50;1.33;;;;;;;;;;5052119;28;20213;-40
2022/05/25 08:33:10;;;;;;;3.22;1.42;;;;;;;;;;5051997;28;20021;-40
2022/05/25 08:35:36;;;;;;;3.53;1.33;;;;;;;;;;5052015;28;20032;-40
2022/05/25 08:38:03;;;;;;;3.78;2.10;;;;;;;;;;5052031;28;20383;-40
2022/05/25 08:40:31;;;;;;;4.53;1.85;;;;;;;;;;5051887;28;20040;-40
2022/05/25 08:42:59;;;;;;;3.33;1.65;;;;;;;;;;5050940;28;20498;-40
2022/05/25 08:45:33;;;;;;;5.07;1.83;;;;;;;;;;5052215;28;20132;-41
2022/05/25 08:48:00;;;;;;;4.93;3.00;;;;;;;;;;5051954;28;20076;-40
2022/05/25 08:50:25;;;;;;;7.97;1.98;;;;;;;;;;5051894;28;20024;-40
2022/05/25 08:52:54;;;;;;;6.72;2.90;;;;;;;;;;5051536;28;20087;-40
2022/05/25 08:55:27;;;;;;;5.65;3.03;;;;;;;;;;5051724;28;20091;-40
2022/05/25 08:57:56;;;;;;;4.10;2.45;;;;;;;;;;5051754;28;20040;-40
2022/05/25 09:00:23;;;;;;;12.63;3.78;;;;;;;;;;5051475;28;20028;-41
2022/05/25 09:03:07;;;;;;;6.78;2.97;;;;;;;;;;5051566;28;20200;-37
2022/05/25 09:05:35;;;;;;;10.90;4.00;;;;;;;;;;5051611;28;20029;-41
2022/05/25 09:08:01;;;;;;;10.02;3.70;;;;;;;;;;5051334;28;20467;-41
2022/05/25 09:10:27;;;;;;;10.48;4.03;;;;;;;;;;5051549;28;20033;-40
2022/05/25 09:12:58;;;;;;;8.27;3.72;;;;;;;;;;5051260;28;20037;-40
2022/05/25 09:15:28;;;;;;;15.60;4.97;;;;;;;;;;5051657;28;20033;-40
2022/05/25 09:17:53;;;;;;;5.43;3.75;;;;;;;;;;5051616;28;20028;-41
2022/05/25 09:20:25;;;;;;;12.40;3.75;;;;;;;;;;5049923;28;20079;-40
2022/05/25 09:22:51;;;;;;;16.88;4.78;;;;;;;;;;5051178;28;20442;-40
2022/05/25 09:25:17;;;;;;;13.82;4.15;;;;;;;;;;5051344;28;20019;-40
2022/05/25 09:28:03;;;;;;;6.93;4.72;;;;;;;;;;5051285;28;20051;-40
2022/05/25 09:30:29;;;;;;;15.00;5.03;;;;;;;;;;5051133;28;20119;-40
2022/05/25 09:33:04;;;;;;;11.88;4.97;;;;;;;;;;5049854;28;20110;-41
2022/05/25 09:35:32;;;;;;;13.25;4.68;;;;;;;;;;5051353;28;20029;-40
2022/05/25 09:38:05;;;;;;;6.47;4.10;;;;;;;;;;5051152;28;20013;-40
2022/05/25 09:40:35;;;;;;;16.48;4.57;;;;;;;;;;5051110;28;20123;-41
2022/05/25 09:43:03;;;;;;;7.97;4.28;;;;;;;;;;5051185;28;20047;-41
2022/05/25 09:45:33;;;;;;;11.68;3.75;;;;;;;;;;5051109;28;20025;-40
2022/05/25 09:48:10;;;;;;;11.73;4.72;;;;;;;;;;5050963;28;20040;-40
2022/05/25 09:50:41;;;;;;;7.43;4.03;;;;;;;;;;5051147;28;20418;-41
2022/05/25 09:53:09;;;;;;;14.77;5.57;;;;;;;;;;5050884;28;20040;-40
2022/05/25 09:55:37;;;;;;;5.63;4.35;;;;;;;;;;5053812;28;20025;-41
2022/05/25 09:58:07;;;;;;;7.97;4.43;;;;;;;;;;5054841;28;20028;-42
2022/05/25 10:00:33;;;;;;;7.82;4.22;;;;;;;;;;5054954;28;20090;-40
2022/05/25 10:03:00;;;;;;;9.13;3.17;;;;;;;;;;5054866;28;20025;-40
2022/05/25 10:05:32;;;;;;;9.38;4.35;;;;;;;;;;5054861;28;20537;-40
2022/05/25 10:08:08;;;;;;;13.63;5.30;;;;;;;;;;5037482;28;20537;-41
2022/05/25 10:10:35;;;;;;;11.95;4.80;;;;;;;;;;5053699;28;20052;-40
2022/05/25 10:13:12;;;;;;;13.23;5.32;;;;;;;;;;5054414;28;20041;-40
2022/05/25 10:15:37;;;;;;;12.98;4.00;;;;;;;;;;5054785;28;20360;-41
2022/05/25 10:18:04;;;;;;;10.00;4.25;;;;;;;;;;5054691;28;20032;-40
2022/05/25 10:20:34;;;;;;;10.82;4.95;;;;;;;;;;5054470;28;20037;-40
2022/05/25 10:23:04;;;;;;;12.15;4.68;;;;;;;;;;5054530;28;20025;-41
2022/05/25 10:25:40;;;;;;;10.07;4.63;;;;;;;;;;5054478;28;20025;-40
2022/05/25 10:28:26;;;;;;;11.05;5.13;;;;;;;;;;5054535;28;20025;-41
2022/05/25 10:36:49;;;;;;;9.70;4.40;;;;;;;;;;5054370;28;20029;-41
2022/05/25 10:39:25;;;;;;;5.93;3.70;;;;;;;;;;5054434;28;20029;-40
2022/05/25 10:42:18;;;;;;;16.17;4.70;;;;;;;;;;5054232;28;20052;-43
2022/05/25 10:44:43;;;;;;;11.18;4.60;;;;;;;;;;5053885;28;20380;-41
2022/05/25 10:47:18;;;;;;;7.75;4.22;;;;;;;;;;5052770;28;20031;-41
2022/05/25 10:49:43;;;;;;;9.57;4.63;;;;;;;;;;5054059;28;20586;-40
2022/05/25 10:52:17;;;;;;;7.47;4.03;;;;;;;;;;5052718;28;20130;-41
2022/05/25 10:54:45;;;;;;;8.35;4.35;;;;;;;;;;5053896;28;20052;-40
2022/05/25 10:57:11;;;;;;;11.45;4.65;;;;;;;;;;5053991;28;20025;-41
2022/05/25 10:59:42;;;;;;;6.75;4.32;;;;;;;;;;5053961;28;20036;-40
2022/05/25 11:02:08;;;;;;;11.50;4.68;;;;;;;;;;5053697;28;20071;-40
2022/05/25 11:05:00;;;;;;;9.73;3.90;;;;;;;;;;5053839;28;20056;-40
2022/05/25 11:07:33;;;;;;;11.20;4.68;;;;;;;;;;5052872;28;20422;-40
2022/05/25 11:10:02;;;;;;;15.52;4.40;;;;;;;;;;5053844;28;20429;-41
2022/05/25 11:12:37;;;;;;;11.88;4.68;;;;;;;;;;5053731;28;20090;-41
2022/05/25 11:15:09;;;;;;;10.00;4.32;;;;;;;;;;5053564;28;20036;-41
2022/05/25 11:17:41;;;;;;;16.02;5.47;;;;;;;;;;5053606;28;20463;-41
2022/05/25 11:20:09;;;;;;;15.40;5.78;;;;;;;;;;5053422;28;20064;-41
2022/05/25 11:22:39;;;;;;;8.77;5.60;;;;;;;;;;5053413;28;20479;-40
2022/05/25 11:25:23;;;;;;;8.18;5.35;;;;;;;;;;5053450;28;20502;-40
2022/05/25 11:27:52;;;;;;;7.35;4.53;;;;;;;;;;5053581;28;20118;-40
2022/05/25 11:30:23;;;;;;;12.60;4.88;;;;;;;;;;5053383;28;20024;-40
2022/05/25 11:33:12;;;;;;;9.27;4.60;;;;;;;;;;5053408;28;20387;-40
2022/05/25 11:35:39;;;;;;;14.10;4.07;;;;;;;;;;5052697;28;20051;-40
2022/05/25 11:38:07;;;;;;;11.50;3.90;;;;;;;;;;5053113;28;20032;-41
2022/05/25 11:40:41;;;;;;;4.85;2.80;;;;;;;;;;5053039;28;20048;-40
2022/05/25 11:43:15;;;;;;;7.20;4.57;;;;;;;;;;5053032;28;20108;-41
2022/05/25 11:45:58;;;;;;;7.13;4.93;;;;;;;;;;5052912;28;20021;-40
2022/05/25 11:48:30;;;;;;;9.32;4.80;;;;;;;;;;5053300;28;20386;-41
2022/05/25 11:51:14;;;;;;;9.52;4.28;;;;;;;;;;5052803;28;20053;-41
2022/05/25 11:53:39;;;;;;;8.25;4.25;;;;;;;;;;5053102;28;20044;-41
2022/05/25 11:56:08;;;;;;;9.00;4.15;;;;;;;;;;5051419;28;20021;-40
2022/05/25 11:58:33;;;;;;;6.60;4.03;;;;;;;;;;5053093;28;20407;-40
2022/05/25 12:01:10;;;;;;;12.90;3.95;;;;;;;;;;5052535;28;20029;-40
2022/05/25 12:03:38;;;;;;;2.03;1.90;;;;;;;;;;5052715;28;20033;-40
2022/05/25 12:06:19;;;;;;;11.05;4.80;;;;;;;;;;5052477;28;20107;-40
2022/05/25 12:08:48;;;;;;;3.97;1.95;;;;;;;;;;5052728;28;20036;-42
2022/05/25 12:11:32;;;;;;;7.90;4.60;;;;;;;;;;5052477;28;20017;-40
2022/05/25 12:14:13;;;;;;;8.63;3.33;;;;;;;;;;5052174;28;20045;-40
2022/05/25 12:16:43;;;;;;;3.42;2.17;;;;;;;;;;5052558;28;20037;-41
2022/05/25 12:19:21;;;;;;;6.55;3.45;;;;;;;;;;5052110;28;20037;-40
2022/05/25 12:21:50;;;;;;;11.90;3.35;;;;;;;;;;5052310;28;20041;-40
2022/05/25 12:24:22;;;;;;;9.25;4.80;;;;;;;;;;5052479;28;20051;-40
2022/05/25 12:26:48;;;;;;;2.42;1.33;;;;;;;;;;5052207;28;20476;-40
2022/05/25 12:29:13;;;;;;;9.48;3.65;;;;;;;;;;5052199;28;20031;-40
2022/05/25 12:31:39;;;;;;;10.63;4.35;;;;;;;;;;5052398;28;20098;-40
2022/05/25 12:34:05;;;;;;;13.30;4.25;;;;;;;;;;5052027;28;20048;-40
2022/05/25 12:36:31;;;;;;;12.52;3.72;;;;;;;;;;5052077;28;20064;-40
2022/05/25 12:38:56;;;;;;;14.07;5.45;;;;;;;;;;5051973;28;20013;-40
2022/05/25 12:41:25;;;;;;;8.40;3.42;;;;;;;;;;5051846;28;20087;-45
2022/05/25 12:43:53;;;;;;;6.22;4.05;;;;;;;;;;5051739;28;20029;-41
2022/05/25 12:49:07;;;;;;;7.78;3.15;;;;;;;;;;5051822;28;20063;-41
2022/05/25 12:51:32;;;;;;;12.18;4.38;;;;;;;;;;5051889;28;20032;-41
2022/05/25 12:53:59;;;;;;;8.77;3.67;;;;;;;;;;5051642;28;20021;-40
2022/05/25 12:56:24;;;;;;;7.85;3.88;;;;;;;;;;5051694;28;20035;-41
2022/05/25 12:58:53;;;;;;;7.68;3.53;;;;;;;;;;5051642;28;20120;-40
2022/05/25 13:01:21;;;;;;;10.80;3.28;;;;;;;;;;5051553;28;20040;-41
2022/05/25 13:03:47;;;;;;;10.27;2.92;;;;;;;;;;5051841;28;20041;-40
2022/05/25 13:06:14;;;;;;;13.10;4.05;;;;;;;;;;5051387;28;20028;-40
2022/05/25 13:08:46;;;;;;;7.55;3.55;;;;;;;;;;5051831;28;20057;-41
2022/05/25 13:11:30;;;;;;;4.65;3.28;;;;;;;;;;5050101;28;20035;-41
2022/05/25 13:13:57;;;;;;;2.30;1.15;;;;;;;;;;5051266;28;20064;-40
2022/05/25 13:16:47;;;;;;;5.05;3.15;;;;;;;;;;5051602;28;20041;-40
2022/05/25 13:19:15;;;;;;;5.40;3.28;;;;;;;;;;5050617;28;20131;-41
2022/05/25 13:21:42;;;;;;;4.68;2.30;;;;;;;;;;5051291;28;20395;-43
2022/05/25 13:24:23;;;;;;;6.65;3.13;;;;;;;;;;5051492;28;20029;-41
2022/05/25 13:26:49;;;;;;;5.90;3.40;;;;;;;;;;5051253;28;20033;-41
2022/05/25 13:29:20;;;;;;;4.32;3.15;;;;;;;;;;5051076;28;20099;-40
2022/05/25 13:31:55;;;;;;;10.00;4.07;;;;;;;;;;5051137;28;20037;-41
2022/05/25 13:34:21;;;;;;;5.05;2.80;;;;;;;;;;5051162;28;20403;-41
2022/05/25 13:36:51;;;;;;;13.02;2.97;;;;;;;;;;5051109;28;20017;-40
2022/05/25 13:39:19;;;;;;;6.88;3.40;;;;;;;;;;5051247;28;20043;-41
2022/05/25 13:41:48;;;;;;;11.32;5.03;;;;;;;;;;5050972;28;20039;-41
2022/05/25 13:44:17;;;;;;;8.88;2.78;;;;;;;;;;5051302;28;20029;-41
2022/05/25 13:46:42;;;;;;;4.45;3.00;;;;;;;;;;5050998;28;20025;-41
2022/05/25 13:49:16;;;;;;;7.85;3.47;;;;;;;;;;5051297;28;20035;-41
2022/05/25 13:51:42;;;;;;;7.15;3.30;;;;;;;;;;5051034;28;20025;-40
2022/05/25 13:54:20;;;;;;;13.00;2.97;;;;;;;;;;5049927;28;20449;-41
2022/05/25 13:56:45;;;;;;;6.05;3.15;;;;;;;;;;5051315;28;20118;-40
2022/05/25 13:59:11;;;;;;;10.40;3.10;;;;;;;;;;5049581;28;20539;-41
2022/05/25 14:01:37;;;;;;;4.65;2.38;;;;;;;;;;5050954;28;20037;-40
2022/05/25 14:04:05;;;;;;;10.80;2.72;;;;;;;;;;5051070;28;20352;-40
2022/05/25 14:06:31;;;;;;;8.40;2.92;;;;;;;;;;5050922;28;20033;-40
2022/05/25 14:11:49;;;;;;;8.90;3.75;;;;;;;;;;5050933;28;20025;-40
2022/05/25 14:14:17;;;;;;;8.48;3.10;;;;;;;;;;5049224;28;20405;-40
2022/05/25 14:16:47;;;;;;;7.82;4.22;;;;;;;;;;5050875;28;20029;-40
2022/05/25 14:19:19;;;;;;;8.93;3.60;;;;;;;;;;5050636;28;20017;-40
2022/05/25 14:21:45;;;;;;;14.48;2.92;;;;;;;;;;5049407;28;20506;-40
2022/05/25 14:24:10;;;;;;;4.93;2.60;;;;;;;;;;5050599;28;20060;-40
2022/05/25 14:26:37;;;;;;;7.72;3.00;;;;;;;;;;5050709;28;20064;-40
2022/05/25 14:29:07;;;;;;;6.78;2.63;;;;;;;;;;5050614;28;20028;-40
2022/05/25 14:31:39;;;;;;;12.65;5.50;;;;;;;;;;5050560;28;20037;-40
2022/05/25 14:34:06;;;;;;;5.28;3.42;;;;;;;;;;5050509;28;20033;-41
2022/05/25 14:36:33;;;;;;;9.20;3.67;;;;;;;;;;5050561;28;20029;-40
2022/05/25 14:38:58;;;;;;;6.68;2.70;;;;;;;;;;5050550;28;20372;-41
2022/05/25 14:41:24;;;;;;;9.80;3.67;;;;;;;;;;5053061;28;20040;-41
2022/05/25 14:43:50;;;;;;;8.60;3.05;;;;;;;;;;5054112;28;20032;-41
2022/05/25 14:46:21;;;;;;;5.38;2.92;;;;;;;;;;5054500;28;20035;-41
2022/05/25 14:48:50;;;;;;;10.15;3.25;;;;;;;;;;5053986;28;20032;-41
2022/05/25 14:51:20;;;;;;;7.53;3.10;;;;;;;;;;5054133;28;20025;-40
2022/05/25 14:53:47;;;;;;;9.93;3.20;;;;;;;;;;5054034;28;20635;-40
2022/05/25 14:56:24;;;;;;;8.82;3.15;;;;;;;;;;5053895;28;20025;-40
2022/05/25 14:58:54;;;;;;;7.10;3.13;;;;;;;;;;5053957;28;20040;-40
2022/05/25 15:01:28;;;;;;;4.05;2.80;;;;;;;;;;5053803;28;20044;-40
2022/05/25 15:03:56;;;;;;;7.10;3.35;;;;;;;;;;5052420;28;20065;-41
2022/05/25 15:06:25;;;;;;;8.70;3.35;;;;;;;;;;5053820;28;20111;-40
2022/05/25 15:08:50;;;;;;;5.20;2.85;;;;;;;;;;5053751;28;20029;-41
2022/05/25 15:11:33;;;;;;;5.70;2.88;;;;;;;;;;5052461;28;20021;-40
2022/05/25 15:20:06;;;;;;;3.03;2.50;;;;;;;;;;5053221;28;20044;-41
2022/05/25 15:22:35;;;;;;;13.20;3.55;;;;;;;;;;5053477;28;20131;-40
2022/05/25 15:25:02;;;;;;;12.70;3.50;;;;;;;;;;5053704;28;20032;-44
2022/05/25 15:27:32;;;;;;;6.80;2.95;;;;;;;;;;5053628;28;20450;-41
2022/05/25 15:30:00;;;;;;;8.80;3.17;;;;;;;;;;5053338;28;20089;-40